Latest Weather Observations for Mareeba

IDQ60801

Issued at 1:32 pm EST Sunday 7 February 2016 (issued every 30 minutes, with the page automatically refreshed every 10 minutes)

About weather observations | Map of weather stations | Latest weather observations for QLD | Other Formats
Station Details ID: 031210 Name: MAREEBA AIRPORT Lat: -17.07 Lon: 145.43 Height: 471.93 m
Data from the previous 72 hours. | See also: Recent months at Mareeba
Date/Time
EST
Temp
°C
App
Temp
°C
Dew
Point
Rel
Hum
%
Delta-T
°C
Wind Press
QNH
hPa
Press
MSL
hPa
Rain
since 9 am
mm
Dir
 
Spd
km/h
Gust
km/h
Spd
kts
Gust
kts
07/01:30pm 33.8 36.1 19.8 43 9.5 N 7 11 4 6 1008.2 - 0.0
07/01:00pm 34.1 36.7 20.5 45 9.3 N 7 17 4 9 1008.5 - 0.0
07/12:30pm 33.4 35.3 19.8 44 9.2 NW 9 15 5 8 1009.0 - 0.0
07/12:00pm 33.0 36.1 21.5 50 7.9 NNW 7 13 4 7 1009.3 1006.1 0.0
07/11:30am 32.2 34.5 21.4 53 7.4 NW 11 17 6 9 1009.6 - 0.0
07/11:00am 31.5 35.2 22.5 59 6.2 NW 7 13 4 7 1009.9 - 0.0
07/10:30am 31.1 34.0 22.4 60 6.0 W 11 19 6 10 1010.3 - 0.0
07/10:00am 30.1 32.6 21.7 60 5.8 WNW 11 17 6 9 1010.4 - 0.0
07/09:30am 29.3 31.8 21.8 64 5.1 W 11 17 6 9 1010.5 - 0.0
07/09:00am 28.7 32.2 22.9 71 4.0 WNW 9 13 5 7 1010.6 1007.4 0.4
07/08:30am 27.9 31.4 23.5 77 3.1 WNW 11 17 6 9 1010.5 - 0.4
07/08:00am 27.2 30.4 23.7 81 2.4 WNW 13 17 7 9 1010.2 - 0.4
07/07:30am 26.5 30.3 23.4 83 2.2 W 9 20 5 11 1010.1 - 0.4
07/07:00am 24.9 30.6 23.7 93 0.8 CALM 0 0 0 0 1009.8 - 0.4
07/06:30am 23.9 29.3 23.2 96 0.5 CALM 0 0 0 0 1009.3 - 0.4
07/06:00am 24.1 29.6 23.4 96 0.5 CALM 0 0 0 0 1008.9 1005.7 0.4
07/05:30am 24.1 29.5 23.2 95 0.6 CALM 0 0 0 0 1008.2 - 0.4
07/05:00am 24.1 29.5 23.2 95 0.6 CALM 0 0 0 0 1007.9 - 0.4
07/04:30am 24.3 29.7 23.3 94 0.7 CALM 0 0 0 0 1007.6 - 0.4
07/04:00am 24.7 30.4 23.8 95 0.6 CALM 0 0 0 0 1007.6 - 0.4
07/03:30am 24.7 30.4 23.7 94 0.7 CALM 0 0 0 0 1007.5 - 0.4
07/03:00am 24.8 30.5 23.8 94 0.7 CALM 0 0 0 0 1007.4 1004.2 0.4
07/02:30am 24.6 29.1 23.6 94 0.7 S 6 9 3 5 1007.6 - 0.4
07/02:00am 24.8 30.4 23.6 93 0.8 CALM 0 0 0 0 1008.1 - 0.4
07/01:30am 25.0 30.6 23.6 92 1.0 CALM 0 0 0 0 1008.2 - 0.4
07/01:00am 25.2 30.8 24.2 94 0.7 S 2 6 1 3 1008.8 - 0.4
07/12:30am 24.9 29.4 23.9 94 0.7 S 7 9 4 5 1009.1 - 0.4
07/12:00am 24.7 30.0 23.1 91 1.1 CALM 0 0 0 0 1009.4 1006.2 0.4
 
Date/Time
EST
Temp
°C
App
Temp
°C
Dew
Point
Rel
Hum
%
Delta-T
°C
Wind Press
QNH
hPa
Press
MSL
hPa
Rain
since 9 am
mm
Dir
 
Spd
km/h
Gust
km/h
Spd
kts
Gust
kts
06/11:30pm 25.0 30.4 23.2 90 1.2 CALM 0 0 0 0 1009.7 - 0.4
06/11:00pm 25.2 30.5 23.1 88 1.4 CALM 0 0 0 0 1009.6 - 0.4
06/10:30pm 25.5 30.9 23.2 87 1.6 CALM 0 0 0 0 1009.5 - 0.4
06/10:00pm 25.8 31.1 23.1 85 1.9 CALM 0 0 0 0 1009.2 - 0.4
06/09:30pm 25.8 30.4 23.1 85 1.9 SSE 4 7 2 4 1009.0 - 0.4
06/09:00pm 26.4 31.1 22.7 80 2.5 ENE 2 7 1 4 1008.4 1005.2 0.4
06/08:30pm 26.5 31.8 23.0 81 2.4 CALM 0 6 0 3 1008.2 - 0.4
06/08:00pm 26.6 31.8 23.5 83 2.2 NNE 2 7 1 4 1008.0 - 0.4
06/07:30pm 27.2 32.9 23.7 81 2.4 CALM 0 0 0 0 1007.2 - 0.4
06/07:00pm 27.6 33.1 23.4 78 2.9 CALM 0 0 0 0 1006.8 - 0.4
06/06:30pm 27.8 32.5 23.4 77 3.1 NE 4 9 2 5 1006.0 - 0.4
06/06:00pm 28.0 31.8 23.4 76 3.2 NNE 9 15 5 8 1005.8 1002.6 0.4
06/05:30pm 29.3 33.7 22.8 68 4.5 NW 4 11 2 6 1005.3 - 0.4
06/05:00pm 30.3 34.0 22.5 63 5.4 WNW 7 9 4 5 1004.8 - 0.4
06/04:30pm 30.5 32.2 21.6 59 6.1 W 15 19 8 10 1004.9 - 0.4
06/04:00pm 31.1 32.4 21.6 57 6.5 WSW 17 24 9 13 1004.5 - 0.4
06/03:30pm 32.2 34.5 22.0 55 7.0 WSW 13 22 7 12 1004.8 - 0.4
06/03:00pm 31.1 35.8 22.7 61 5.9 W 2 13 1 7 1005.1 1001.9 0.4
06/02:30pm 28.4 33.9 24.0 77 3.1 NE 2 9 1 5 1005.6 - 0.2
06/02:00pm 29.6 31.5 22.1 64 5.2 WNW 15 32 8 17 1005.6 - 0.0
06/01:30pm 31.4 34.3 21.0 54 7.1 WNW 7 13 4 7 1005.6 - 0.0
06/01:00pm 31.5 34.0 21.7 56 6.7 WNW 11 15 6 8 1005.8 - 0.0
06/12:30pm 31.5 33.7 21.1 54 7.1 W 11 17 6 9 1006.1 - 0.0
06/12:00pm 31.2 33.4 21.1 55 6.9 WNW 11 19 6 10 1006.7 1003.4 0.0
06/11:30am 30.6 33.7 22.2 61 5.8 WNW 9 17 5 9 1007.0 - 0.0
06/11:00am 29.5 31.9 22.2 65 5.0 W 13 22 7 12 1007.4 - 0.0
06/10:30am 28.6 31.6 22.6 70 4.1 WNW 11 17 6 9 1007.7 - 0.0
06/10:00am 28.9 31.3 22.2 67 4.6 W 13 19 7 10 1007.8 - 0.0
06/09:30am 27.4 30.5 22.8 76 3.2 W 11 17 6 9 1007.8 - 0.0
06/09:00am 27.2 28.9 23.0 78 2.9 W 19 22 10 12 1007.7 1004.5 0.2
06/08:30am 26.7 30.5 23.4 82 2.3 W 9 11 5 6 1007.4 - 0.2
06/08:00am 25.6 29.2 23.8 90 1.3 W 11 15 6 8 1007.2 - 0.2
06/07:30am 25.0 29.4 23.8 93 0.8 WSW 7 11 4 6 1007.1 - 0.2
06/07:00am 24.1 29.6 23.4 96 0.5 CALM 0 0 0 0 1006.8 - 0.2
06/06:30am 23.8 29.1 23.1 96 0.5 CALM 0 0 0 0 1006.1 - 0.2
06/06:00am 24.0 29.4 23.3 96 0.5 CALM 0 0 0 0 1005.7 1002.5 0.2
06/05:30am 23.9 29.1 22.9 94 0.7 CALM 0 0 0 0 1005.7 - 0.2
06/05:00am 24.0 29.2 22.8 93 0.8 CALM 0 6 0 3 1005.5 - 0.2
06/04:30am 23.9 27.9 22.7 93 0.8 W 6 9 3 5 1005.3 - 0.2
06/04:00am 23.7 28.9 22.9 95 0.5 CALM 0 0 0 0 1005.1 - 0.2
06/03:30am 23.5 28.6 22.7 95 0.5 CALM 0 0 0 0 1004.9 - 0.2
06/03:00am 23.3 27.2 22.5 95 0.5 S 6 7 3 4 1004.9 1001.6 0.2
06/02:30am 23.4 28.2 22.2 93 0.8 CALM 0 0 0 0 1005.1 - 0.2
06/02:00am 23.8 28.6 22.2 91 1.1 CALM 0 0 0 0 1005.2 - 0.2
06/01:30am 24.0 28.8 22.1 89 1.3 CALM 0 0 0 0 1005.2 - 0.2
06/01:00am 24.5 29.3 22.2 87 1.6 CALM 0 0 0 0 1005.7 - 0.2
06/12:30am 24.4 29.2 22.1 87 1.6 CALM 0 0 0 0 1006.0 - 0.2
06/12:00am 24.3 27.8 22.2 88 1.4 S 7 9 4 5 1006.7 1003.4 0.2
 
Date/Time
EST
Temp
°C
App
Temp
°C
Dew
Point
Rel
Hum
%
Delta-T
°C
Wind Press
QNH
hPa
Press
MSL
hPa
Rain
since 9 am
mm
Dir
 
Spd
km/h
Gust
km/h
Spd
kts
Gust
kts
05/11:30pm 24.5 28.5 22.0 86 1.7 SW 4 9 2 5 1007.1 - 0.2
05/11:00pm 24.3 28.6 22.0 87 1.6 N 2 11 1 6 1007.5 - 0.2
05/10:30pm 24.7 29.4 22.0 85 1.8 CALM 0 0 0 0 1008.0 - 0.2
05/10:00pm 24.8 28.5 21.5 82 2.2 NNW 4 7 2 4 1007.7 - 0.2
05/09:30pm 25.0 28.1 21.5 81 2.4 WNW 7 11 4 6 1007.4 - 0.2
05/09:00pm 25.0 27.7 21.3 80 2.5 WNW 9 15 5 8 1007.4 1004.2 0.2
05/08:30pm 25.2 27.0 21.1 78 2.8 W 13 19 7 10 1007.2 - 0.2
05/08:00pm 25.4 26.9 21.3 78 2.8 W 15 20 8 11 1006.6 - 0.2
05/07:30pm 25.9 28.2 20.7 73 3.5 SW 9 15 5 8 1006.6 - 0.2
05/07:00pm 27.1 27.9 21.4 71 3.9 W 19 30 10 16 1005.6 - 0.2
05/06:30pm 28.0 31.8 24.0 79 2.8 N 11 15 6 8 1005.1 - 0.2
05/06:00pm 29.0 32.2 23.7 73 3.7 N 13 20 7 11 1004.7 1001.4 0.2
05/05:30pm 30.3 33.4 23.5 67 4.8 NNW 13 20 7 11 1003.7 - 0.2
05/05:00pm 29.9 33.4 23.6 69 4.4 NNW 11 20 6 11 1003.7 - 0.2
05/04:30pm 28.8 31.5 23.5 73 3.7 N 15 20 8 11 1003.1 - 0.2
05/04:00pm 30.9 34.4 22.8 62 5.6 N 9 22 5 12 1003.6 - 0.2
05/03:30pm 31.3 33.5 21.8 57 6.5 N 13 19 7 10 1003.7 - 0.2
05/03:00pm 32.3 35.7 22.7 57 6.7 NNW 9 13 5 7 1003.8 1000.6 0.2
05/02:30pm 31.7 34.6 22.4 58 6.4 NNW 11 17 6 9 1004.0 - 0.2
05/02:00pm 30.9 32.9 22.2 59 6.0 WNW 15 20 8 11 1004.6 - 0.2
05/01:30pm 30.2 33.8 22.4 63 5.4 N 7 15 4 8 1004.9 - 0.2
05/01:00pm 30.0 32.4 22.2 63 5.4 NW 13 20 7 11 1005.4 - 0.2
05/12:30pm 29.9 32.8 23.8 70 4.3 WNW 15 20 8 11 1005.9 - 0.2
05/12:00pm 28.9 32.8 23.6 73 3.7 W 9 13 5 7 1006.5 1003.2 0.2
05/11:30am 28.2 31.4 23.1 74 3.5 W 11 17 6 9 1007.1 - 0.2
05/11:00am 28.0 31.4 24.0 79 2.8 WNW 13 19 7 10 1007.6 - 0.2
05/10:30am 27.1 30.6 23.6 81 2.4 WNW 11 17 6 9 1008.0 - 0.2
05/10:00am 26.3 30.1 24.0 87 1.6 NW 11 17 6 9 1008.1 - 0.2
05/09:30am 25.5 29.3 24.1 92 1.0 W 11 15 6 8 1008.1 - 0.2
05/09:00am 25.6 29.5 23.6 89 1.4 W 9 15 5 8 1008.0 1004.8 5.2
05/08:30am 25.4 30.5 24.0 92 1.0 WNW 4 9 2 5 1007.9 - 5.2
05/08:00am 25.0 30.7 25.0 100 0.0 WNW 4 9 2 5 1007.6 - 5.2
05/07:30am 24.6 29.7 24.6 100 0.0 WNW 6 9 3 5 1007.4 - 4.6
05/07:00am 24.3 29.0 24.3 100 0.0 WNW 7 13 4 7 1007.0 - 4.6
05/06:30am 24.2 29.4 24.2 100 0.0 SE 4 9 2 5 1006.6 - 4.6
05/06:00am 24.1 30.0 24.1 100 0.0 CALM 0 0 0 0 1006.1 1002.9 4.6
05/05:30am 24.1 30.0 24.1 100 0.0 CALM 0 0 0 0 1006.0 - 4.6
05/05:00am 24.0 29.8 24.0 100 0.0 CALM 0 0 0 0 1005.9 - 4.6
05/04:30am 23.9 29.7 23.9 100 0.0 CALM 0 0 0 0 1005.7 - 4.6
05/04:00am 23.9 29.7 23.9 100 0.0 CALM 0 0 0 0 1005.5 - 4.6
05/03:30am 23.8 27.8 23.8 100 0.0 NW 9 13 5 7 1005.6 - 4.4
05/03:00am 24.0 29.7 23.7 98 0.2 CALM 0 0 0 0 1005.3 1002.1 3.2
05/02:30am 23.9 29.5 23.6 98 0.2 CALM 0 0 0 0 1005.7 - 3.2
05/02:00am 23.8 29.2 23.3 97 0.3 CALM 0 0 0 0 1006.2 - 3.2
05/01:30am 23.8 29.2 23.3 97 0.3 CALM 0 0 0 0 1006.7 - 3.2
05/01:00am 23.9 29.2 23.0 95 0.6 CALM 0 0 0 0 1006.8 - 3.2
05/12:30am 24.1 29.4 23.1 94 0.7 CALM 0 0 0 0 1007.2 - 3.2
05/12:00am 23.9 27.8 23.0 95 0.6 SSW 7 9 4 5 1007.7 1004.5 3.2
 
Date/Time
EST
Temp
°C
App
Temp
°C
Dew
Point
Rel
Hum
%
Delta-T
°C
Wind Press
QNH
hPa
Press
MSL
hPa
Rain
since 9 am
mm
Dir
 
Spd
km/h
Gust
km/h
Spd
kts
Gust
kts
04/11:30pm 24.0 29.4 23.3 96 0.5 CALM 0 7 0 4 1008.4 - 3.2
04/11:00pm 24.0 28.1 23.0 94 0.7 NNE 6 7 3 4 1008.7 - 3.2
04/10:30pm 24.1 28.2 22.9 93 0.8 WSW 6 7 3 4 1008.5 - 3.2
04/10:00pm 24.6 28.7 23.2 92 1.0 ESE 7 9 4 5 1008.5 - 3.2
04/09:30pm 24.5 28.8 23.6 95 0.6 ESE 7 9 4 5 1008.3 - 3.2
04/09:00pm 24.4 30.2 23.9 97 0.3 CALM 0 0 0 0 1008.0 1004.8 3.2
04/08:30pm 24.4 29.3 23.7 96 0.5 SE 4 9 2 5 1008.0 - 3.2
04/08:00pm 24.4 28.8 23.5 95 0.6 W 6 7 3 4 1007.6 - 3.2
04/07:30pm 24.3 28.5 23.1 93 0.8 NNW 6 7 3 4 1007.4 - 3.2
04/07:00pm 24.5 28.2 23.3 93 0.8 SE 9 13 5 7 1007.2 - 3.2
04/06:30pm 24.7 27.9 23.1 91 1.1 E 11 15 6 8 1007.1 - 3.2
04/06:00pm 24.5 25.7 22.2 87 1.6 SW 19 35 10 19 1007.2 1004.0 3.0
04/05:49pm 24.7 24.5 22.8 89 1.3 WSW 28 41 15 22 1007.0 - 2.0
04/05:30pm 27.4 31.2 22.8 76 3.2 NE 7 13 4 7 1006.2 - 0.6
04/05:00pm 26.6 29.2 22.7 79 2.7 W 13 22 7 12 1006.1 - 0.6
04/04:30pm 29.0 31.8 23.0 70 4.2 SE 13 17 7 9 1005.9 - 0.0
04/04:00pm 30.5 32.4 22.1 61 5.8 WSW 15 20 8 11 1005.9 - 0.0
04/03:30pm 32.2 34.6 22.9 58 6.5 WNW 15 20 8 11 1005.8 - 0.0
04/03:00pm 31.5 33.8 21.4 55 6.9 NNW 11 17 6 9 1005.9 1002.7 0.0
04/02:30pm 32.5 34.6 21.7 53 7.4 NNW 13 22 7 12 1006.1 - 0.0
04/02:00pm 32.6 34.9 22.1 54 7.3 NW 13 20 7 11 1006.8 - 0.0

Other Formats:

Comma delimited format used in spreadsheet applications
http://www.bom.gov.au/fwo/IDQ60801/IDQ60801.95286.axf

JavaScript Object Notation format (JSON) in row-major order
http://www.bom.gov.au/fwo/IDQ60801/IDQ60801.95286.json